createdAt,value
2017-06-27T00:00:25.419Z,5.22
2017-06-27T00:02:52.045Z,7.00
2017-06-27T00:05:18.761Z,7.00
2017-06-27T00:07:45.397Z,5.65
2017-06-27T00:10:12.046Z,5.80
2017-06-27T00:12:38.703Z,5.78
2017-06-27T00:15:05.345Z,5.53
2017-06-27T00:17:32.062Z,6.00
2017-06-27T00:19:58.742Z,5.30
2017-06-27T00:22:25.384Z,4.87
2017-06-27T00:24:52.223Z,5.87
2017-06-27T00:27:18.874Z,6.43
2017-06-27T00:29:45.614Z,7.07
2017-06-27T00:32:12.663Z,6.37
2017-06-27T00:34:39.406Z,5.90
2017-06-27T00:37:06.141Z,7.62
2017-06-27T00:39:32.873Z,5.50
2017-06-27T00:41:59.617Z,6.30
2017-06-27T00:44:26.362Z,5.60
2017-06-27T00:46:53.107Z,5.05
2017-06-27T00:49:19.748Z,5.05
2017-06-27T00:51:46.406Z,5.95
2017-06-27T00:54:13.107Z,6.20
2017-06-27T00:56:39.766Z,5.72
2017-06-27T00:59:06.426Z,5.85
2017-06-27T01:01:33.102Z,6.32
2017-06-27T01:03:59.748Z,5.35
2017-06-27T01:06:26.425Z,5.47
2017-06-27T01:08:53.085Z,6.15
2017-06-27T01:11:19.745Z,6.25
2017-06-27T01:13:46.407Z,12.45
2017-06-27T01:16:13.067Z,5.97
2017-06-27T01:18:39.821Z,5.70
2017-06-27T01:21:06.465Z,6.45
2017-06-27T01:23:33.190Z,6.37
2017-06-27T01:25:59.846Z,6.82
2017-06-27T01:28:26.597Z,6.03
2017-06-27T01:30:53.264Z,5.50
2017-06-27T01:33:19.947Z,8.52
2017-06-27T01:35:46.706Z,6.40
2017-06-27T01:38:13.457Z,7.68
2017-06-27T01:40:40.099Z,6.03
2017-06-27T01:43:06.732Z,6.28
2017-06-27T01:45:33.402Z,7.00
2017-06-27T01:48:00.115Z,6.97
2017-06-27T01:50:26.835Z,5.20
2017-06-27T01:52:53.514Z,7.55
2017-06-27T01:55:20.156Z,6.82
2017-06-27T01:57:46.873Z,7.20
2017-06-27T02:00:13.602Z,6.57
2017-06-27T02:02:40.316Z,6.60
2017-06-27T02:05:06.965Z,7.53
2017-06-27T02:07:33.737Z,6.12
2017-06-27T02:10:00.478Z,7.72
2017-06-27T02:12:27.199Z,8.10
2017-06-27T02:14:53.874Z,7.10
2017-06-27T02:17:20.519Z,7.85
2017-06-27T02:19:47.238Z,7.50
2017-06-27T02:22:13.979Z,7.97
2017-06-27T02:24:40.687Z,7.45
2017-06-27T02:27:07.342Z,8.32
2017-06-27T02:29:34.000Z,7.50
2017-06-27T02:32:00.729Z,6.80
2017-06-27T02:34:27.478Z,10.98
2017-06-27T02:36:54.208Z,8.45
2017-06-27T02:39:20.966Z,8.70
2017-06-27T02:41:47.701Z,9.73
2017-06-27T02:44:14.453Z,9.88
2017-06-27T02:46:41.098Z,8.98
2017-06-27T02:49:07.749Z,9.13
2017-06-27T02:51:34.427Z,10.80
2017-06-27T02:54:01.071Z,8.65
2017-06-27T02:56:27.728Z,8.98
2017-06-27T02:58:54.471Z,9.73
2017-06-27T03:01:21.126Z,8.77
2017-06-27T03:03:47.857Z,8.52
2017-06-27T03:06:14.530Z,9.98
2017-06-27T03:08:41.231Z,7.62
2017-06-27T03:11:07.984Z,10.93
2017-06-27T03:13:34.715Z,11.12
2017-06-27T03:16:01.362Z,8.05
2017-06-27T03:18:28.095Z,7.78
2017-06-27T03:20:54.769Z,8.18
2017-06-27T03:23:21.412Z,8.25
2017-06-27T03:25:48.123Z,7.03
2017-06-27T03:28:14.794Z,8.60
2017-06-27T03:30:41.491Z,8.35
2017-06-27T03:33:08.132Z,10.38
2017-06-27T03:35:34.815Z,7.70
2017-06-27T03:38:01.455Z,8.15
2017-06-27T03:40:28.170Z,8.30
2017-06-27T03:42:54.838Z,8.35
2017-06-27T03:45:21.554Z,8.50
2017-06-27T03:47:48.294Z,7.70
2017-06-27T03:50:15.019Z,6.70
2017-06-27T03:52:41.774Z,7.75
2017-06-27T03:55:08.612Z,7.97
2017-06-27T03:57:35.339Z,8.55
2017-06-27T04:00:01.993Z,8.07
2017-06-27T04:02:28.738Z,8.50
2017-06-27T04:04:55.395Z,9.40
2017-06-27T04:07:22.035Z,8.02
2017-06-27T04:09:48.750Z,6.87
2017-06-27T04:12:15.412Z,7.20
2017-06-27T04:14:42.129Z,8.70
2017-06-27T04:17:08.878Z,7.62
2017-06-27T04:19:35.626Z,7.18
2017-06-27T04:22:02.375Z,7.65
2017-06-27T04:24:29.092Z,9.15
2017-06-27T04:26:55.761Z,9.90
2017-06-27T04:29:22.414Z,8.50
2017-06-27T04:31:49.062Z,8.63
2017-06-27T04:34:15.758Z,8.13
2017-06-27T04:36:42.512Z,6.95
2017-06-27T04:39:09.250Z,15.73
2017-06-27T04:41:35.914Z,7.68
2017-06-27T04:44:02.557Z,9.02
2017-06-27T04:46:29.271Z,7.10
2017-06-27T04:48:56.010Z,5.80
2017-06-27T04:51:22.647Z,7.18
2017-06-27T04:53:49.384Z,7.78
2017-06-27T04:56:16.048Z,7.37
2017-06-27T04:58:42.684Z,8.57
2017-06-27T05:01:09.506Z,8.85
2017-06-27T05:03:36.261Z,7.40
2017-06-27T05:06:02.989Z,7.90
2017-06-27T05:08:29.737Z,7.28
2017-06-27T05:10:56.465Z,7.10
2017-06-27T05:13:23.219Z,6.78
2017-06-27T05:15:49.882Z,8.05
2017-06-27T05:18:16.579Z,6.40
2017-06-27T05:20:43.328Z,7.20
2017-06-27T05:23:10.180Z,8.15
2017-06-27T05:25:36.916Z,7.10
2017-06-27T05:28:03.658Z,7.87
2017-06-27T05:30:30.380Z,7.32
2017-06-27T05:32:57.145Z,7.45
2017-06-27T05:35:23.890Z,7.05
2017-06-27T05:37:50.547Z,9.02
2017-06-27T05:40:17.264Z,8.27
2017-06-27T05:42:44.744Z,7.28
2017-06-27T05:45:11.387Z,8.95
2017-06-27T05:47:38.074Z,18.42
2017-06-27T05:50:04.736Z,8.50
2017-06-27T05:52:31.375Z,8.77
2017-06-27T05:54:58.050Z,7.87
2017-06-27T05:57:24.700Z,8.48
2017-06-27T05:59:51.407Z,7.28
2017-06-27T06:02:18.159Z,6.57
2017-06-27T06:04:44.815Z,9.52
2017-06-27T06:07:11.535Z,9.07
2017-06-27T06:09:38.214Z,7.87
2017-06-27T06:12:04.866Z,8.00
2017-06-27T06:14:31.651Z,6.37
2017-06-27T06:16:58.380Z,12.93
2017-06-27T06:19:25.130Z,6.28
2017-06-27T06:21:51.772Z,12.07
2017-06-27T06:24:18.431Z,7.90
2017-06-27T06:26:45.091Z,6.47
2017-06-27T06:29:11.746Z,9.40
2017-06-27T06:31:38.531Z,11.45
2017-06-27T06:34:05.194Z,6.43
2017-06-27T06:36:31.918Z,6.75
2017-06-27T06:38:58.938Z,7.37
2017-06-27T06:41:25.598Z,7.97
2017-06-27T06:43:52.258Z,6.85
2017-06-27T06:46:18.982Z,5.32
2017-06-27T06:48:45.634Z,5.40
2017-06-27T06:51:12.367Z,5.10
2017-06-27T06:53:39.028Z,8.20
2017-06-27T06:56:05.842Z,8.40
2017-06-27T06:58:32.494Z,5.80
2017-06-27T07:00:59.315Z,8.15
2017-06-27T07:03:26.067Z,11.50
2017-06-27T07:05:52.818Z,5.72
2017-06-27T07:08:19.494Z,6.78
2017-06-27T07:10:46.180Z,5.72
2017-06-27T07:13:12.830Z,4.80
2017-06-27T07:15:39.556Z,5.78
2017-06-27T07:18:06.305Z,5.40
2017-06-27T07:20:33.054Z,6.40
2017-06-27T07:22:59.721Z,5.15
2017-06-27T07:25:26.378Z,4.80
2017-06-27T07:27:53.063Z,5.97
2017-06-27T07:30:19.814Z,5.60
2017-06-27T07:32:46.562Z,5.28
2017-06-27T07:35:13.204Z,5.30
2017-06-27T07:37:39.889Z,5.62
2017-06-27T07:40:06.536Z,5.28
2017-06-27T07:42:33.195Z,6.28
2017-06-27T07:44:59.950Z,7.32
2017-06-27T07:47:26.698Z,6.37
2017-06-27T07:49:53.354Z,6.60
2017-06-27T07:52:20.019Z,11.18
2017-06-27T07:54:46.655Z,7.75
2017-06-27T07:57:13.323Z,7.35
2017-06-27T07:59:40.098Z,10.88
2017-06-27T08:02:06.848Z,9.02
2017-06-27T08:04:33.581Z,9.90
2017-06-27T08:07:00.330Z,12.20
2017-06-27T08:09:26.981Z,9.10
2017-06-27T08:11:53.624Z,12.37
2017-06-27T08:14:20.340Z,9.93
2017-06-27T08:16:46.998Z,9.85
2017-06-27T08:19:13.716Z,13.93
2017-06-27T08:21:40.471Z,9.35
2017-06-27T08:24:07.116Z,8.45
2017-06-27T08:26:33.835Z,9.07
2017-06-27T08:29:00.506Z,6.40
2017-06-27T08:31:27.207Z,9.50
2017-06-27T08:33:53.848Z,11.57
2017-06-27T08:36:20.614Z,9.27
2017-06-27T08:38:47.349Z,8.95
2017-06-27T08:41:14.007Z,8.55
2017-06-27T08:43:40.715Z,9.85
2017-06-27T08:46:07.351Z,8.63
2017-06-27T08:48:33.992Z,8.55
2017-06-27T08:51:00.658Z,8.95
2017-06-27T08:53:27.390Z,10.10
2017-06-27T08:55:54.135Z,9.45
2017-06-27T08:58:20.860Z,9.10
2017-06-27T09:00:47.503Z,7.25
2017-06-27T09:03:14.145Z,7.87
2017-06-27T09:05:40.807Z,10.95
2017-06-27T09:08:07.531Z,7.35
2017-06-27T09:10:34.221Z,6.60
2017-06-27T09:13:01.010Z,7.62
2017-06-27T09:15:27.755Z,8.57
2017-06-27T09:17:54.484Z,8.13
2017-06-27T09:20:21.157Z,7.53
2017-06-27T09:22:47.799Z,6.12
2017-06-27T09:25:14.440Z,8.38
2017-06-27T09:27:41.151Z,5.78
2017-06-27T09:30:07.996Z,8.20
2017-06-27T09:32:34.658Z,8.10
2017-06-27T09:35:01.335Z,7.28
2017-06-27T09:37:28.022Z,6.95
2017-06-27T09:39:54.748Z,6.97
2017-06-27T09:42:21.499Z,6.30
2017-06-27T09:44:48.144Z,6.28
2017-06-27T09:47:14.784Z,5.50
2017-06-27T09:49:41.508Z,4.65
2017-06-27T09:52:08.253Z,6.00
2017-06-27T09:54:34.988Z,6.00
2017-06-27T09:57:01.662Z,7.28
2017-06-27T09:59:28.326Z,3.92
2017-06-27T10:01:55.022Z,3.60
2017-06-27T10:04:21.751Z,4.00
2017-06-27T10:06:48.510Z,4.05
2017-06-27T10:09:15.254Z,4.60
2017-06-27T10:11:41.934Z,3.72
2017-06-27T10:14:08.598Z,4.45
2017-06-27T10:16:35.267Z,3.40
2017-06-27T10:19:01.946Z,4.32
2017-06-27T10:21:28.651Z,4.63
2017-06-27T10:23:55.381Z,4.90
2017-06-27T10:26:22.056Z,3.30
2017-06-27T10:28:48.778Z,3.70
2017-06-27T10:31:15.502Z,3.00
2017-06-27T10:33:42.156Z,3.33
2017-06-27T10:36:08.815Z,3.50
2017-06-27T10:38:35.455Z,4.10
2017-06-27T10:41:02.111Z,3.43
2017-06-27T10:43:28.799Z,4.83
2017-06-27T10:45:55.554Z,2.60
2017-06-27T10:48:22.287Z,3.23
2017-06-27T10:50:49.029Z,3.17
2017-06-27T10:53:15.671Z,3.70
2017-06-27T10:55:42.406Z,3.57
2017-06-27T10:58:09.158Z,3.07
2017-06-27T11:00:35.800Z,4.30
2017-06-27T11:03:02.539Z,3.63
2017-06-27T11:05:29.179Z,6.10
2017-06-27T11:07:55.823Z,4.83
2017-06-27T11:10:22.498Z,3.63
2017-06-27T11:12:49.154Z,5.33
2017-06-27T11:15:15.838Z,4.37
2017-06-27T11:17:42.495Z,3.70
2017-06-27T11:20:09.129Z,3.27
2017-06-27T11:22:35.768Z,3.67
2017-06-27T11:25:02.427Z,2.80
2017-06-27T11:27:29.082Z,4.10
2017-06-27T11:29:55.751Z,3.63
2017-06-27T11:32:22.418Z,3.20
2017-06-27T11:34:49.074Z,3.97
2017-06-27T11:37:15.779Z,3.43
2017-06-27T11:39:42.433Z,3.50
2017-06-27T11:42:09.068Z,7.03
2017-06-27T11:44:35.734Z,5.23
2017-06-27T11:47:02.437Z,4.43
2017-06-27T11:49:29.260Z,3.67
2017-06-27T11:51:55.925Z,4.67
2017-06-27T11:54:22.660Z,7.30
2017-06-27T11:56:49.330Z,5.40
2017-06-27T11:59:15.972Z,12.40
2017-06-27T12:01:48.530Z,3.17
2017-06-27T12:04:20.939Z,15.83
2017-06-27T12:06:54.936Z,5.30
2017-06-27T12:09:27.589Z,8.30
2017-06-27T12:11:54.244Z,2.63
2017-06-27T12:14:21.073Z,3.43
2017-06-27T12:16:47.716Z,3.00
2017-06-27T12:19:14.462Z,2.13
2017-06-27T12:21:41.118Z,5.47
2017-06-27T12:24:07.823Z,2.57
2017-06-27T12:26:34.590Z,2.60
2017-06-27T12:29:01.319Z,2.10
2017-06-27T12:31:28.067Z,2.30
2017-06-27T12:33:54.741Z,2.53
2017-06-27T12:36:21.447Z,3.20
2017-06-27T12:38:48.180Z,2.93
2017-06-27T12:41:14.917Z,5.87
2017-06-27T12:43:41.579Z,4.93
2017-06-27T12:46:08.302Z,3.80
2017-06-27T12:48:34.960Z,7.23
2017-06-27T12:51:01.628Z,6.20
2017-06-27T12:53:28.812Z,4.77
2017-06-27T12:55:55.573Z,4.97
2017-06-27T12:58:22.224Z,2.83
2017-06-27T13:00:48.882Z,2.57
2017-06-27T13:03:15.559Z,3.67
2017-06-27T13:05:42.224Z,3.57
2017-06-27T13:08:08.859Z,2.27
2017-06-27T13:10:35.608Z,2.93
2017-06-27T13:13:02.263Z,4.10
2017-06-27T13:15:29.003Z,2.40
2017-06-27T13:17:55.750Z,3.10
2017-06-27T13:20:22.419Z,4.33
2017-06-27T13:22:49.074Z,2.50
2017-06-27T13:25:15.751Z,5.87
2017-06-27T13:27:42.488Z,2.67
2017-06-27T13:30:09.241Z,7.70
2017-06-27T13:32:35.972Z,6.07
2017-06-27T13:35:02.622Z,2.93
2017-06-27T13:37:29.370Z,1.93
2017-06-27T13:39:56.052Z,4.87
2017-06-27T13:42:22.728Z,5.33
2017-06-27T13:44:49.467Z,2.97
2017-06-27T13:47:16.225Z,5.33
2017-06-27T13:49:43.068Z,2.73
2017-06-27T13:52:09.707Z,4.43
2017-06-27T13:54:36.388Z,7.93
2017-06-27T13:57:03.043Z,5.30
2017-06-27T13:59:29.734Z,3.63
2017-06-27T14:01:56.392Z,4.53
2017-06-27T14:04:23.030Z,1.70
2017-06-27T14:06:49.683Z,1.90
2017-06-27T14:09:16.376Z,3.30
2017-06-27T14:11:43.016Z,5.47
2017-06-27T14:14:09.657Z,4.30
2017-06-27T14:16:36.312Z,2.40
2017-06-27T14:19:02.970Z,2.30
2017-06-27T14:21:29.608Z,2.60
2017-06-27T14:23:56.316Z,2.63
2017-06-27T14:26:23.047Z,4.17
2017-06-27T14:28:49.689Z,2.40
2017-06-27T14:31:16.446Z,2.37
2017-06-27T14:33:43.198Z,2.47
2017-06-27T14:36:09.861Z,1.60
2017-06-27T14:38:36.524Z,2.27
2017-06-27T14:41:03.196Z,2.13
2017-06-27T14:43:29.937Z,2.13
2017-06-27T14:45:56.682Z,1.93
2017-06-27T14:48:23.424Z,2.50
2017-06-27T14:50:50.062Z,2.73
2017-06-27T14:53:16.728Z,2.40
2017-06-27T14:55:43.369Z,3.50
2017-06-27T14:58:10.012Z,3.90
2017-06-27T15:00:36.668Z,2.03
2017-06-27T15:03:03.352Z,2.47
2017-06-27T15:05:30.096Z,3.63
2017-06-27T15:07:56.756Z,2.17
2017-06-27T15:10:23.395Z,4.60
2017-06-27T15:12:50.050Z,2.03
2017-06-27T15:15:16.774Z,1.83
2017-06-27T15:17:43.435Z,2.60
2017-06-27T15:20:10.094Z,3.50
2017-06-27T15:22:36.772Z,3.57
2017-06-27T15:25:03.531Z,3.80
2017-06-27T15:27:30.186Z,4.97
2017-06-27T15:29:56.914Z,2.63
2017-06-27T15:32:23.560Z,3.30
2017-06-27T15:34:50.199Z,2.47
2017-06-27T15:37:16.874Z,3.13
2017-06-27T15:39:43.531Z,2.87
2017-06-27T15:42:10.175Z,2.73
2017-06-27T15:44:36.846Z,4.80
2017-06-27T15:47:03.576Z,3.03
2017-06-27T15:49:30.223Z,2.80
2017-06-27T15:51:56.887Z,2.67
2017-06-27T15:54:23.630Z,2.77
2017-06-27T15:56:50.291Z,4.50
2017-06-27T15:59:16.976Z,3.07
2017-06-27T16:01:43.716Z,4.87
2017-06-27T16:04:10.374Z,4.93
2017-06-27T16:06:37.051Z,2.77
2017-06-27T16:09:03.707Z,4.27
2017-06-27T16:11:30.366Z,4.30
2017-06-27T16:13:57.119Z,3.97
2017-06-27T16:16:23.864Z,4.40
2017-06-27T16:18:50.595Z,3.50
2017-06-27T16:21:17.278Z,3.70
2017-06-27T16:23:43.924Z,4.70
2017-06-27T16:26:10.594Z,4.20
2017-06-27T16:28:37.368Z,4.83
2017-06-27T16:31:04.100Z,4.23
2017-06-27T16:33:30.754Z,6.00
2017-06-27T16:35:57.433Z,4.47
2017-06-27T16:38:24.081Z,3.40
2017-06-27T16:40:50.728Z,4.50
2017-06-27T16:43:17.397Z,4.80
2017-06-27T16:45:44.060Z,4.20
2017-06-27T16:48:10.790Z,3.83
2017-06-27T16:50:37.447Z,4.30
2017-06-27T16:53:04.103Z,4.90
2017-06-27T16:55:30.752Z,4.85
2017-06-27T16:57:57.412Z,4.22
2017-06-27T17:00:24.052Z,4.57
2017-06-27T17:02:50.704Z,4.78
2017-06-27T17:05:17.769Z,5.10
2017-06-27T17:07:44.413Z,4.22
2017-06-27T17:10:11.075Z,3.75
2017-06-27T17:12:37.754Z,4.20
2017-06-27T17:15:04.442Z,4.68
2017-06-27T17:17:31.165Z,7.07
2017-06-27T17:19:57.904Z,4.80
2017-06-27T17:22:24.544Z,4.05
2017-06-27T17:24:51.190Z,4.15
2017-06-27T17:27:17.939Z,3.75
2017-06-27T17:29:44.683Z,4.45
2017-06-27T17:32:11.331Z,3.92
2017-06-27T17:34:38.050Z,4.30
2017-06-27T17:37:04.767Z,3.55
2017-06-27T17:39:31.411Z,3.50
2017-06-27T17:41:58.168Z,4.60
2017-06-27T17:44:24.819Z,4.10
2017-06-27T17:46:51.557Z,3.85
2017-06-27T17:49:18.284Z,4.22
2017-06-27T17:51:44.938Z,2.70
2017-06-27T17:54:11.612Z,3.30
2017-06-27T17:56:38.275Z,5.07
2017-06-27T17:59:04.934Z,3.83
2017-06-27T18:01:31.577Z,3.00
2017-06-27T18:03:58.337Z,3.20
2017-06-27T18:06:24.987Z,3.10
2017-06-27T18:08:51.642Z,3.30
2017-06-27T18:11:18.304Z,3.00
2017-06-27T18:13:44.958Z,3.10
2017-06-27T18:16:11.738Z,4.40
2017-06-27T18:18:38.581Z,4.15
2017-06-27T18:21:05.426Z,3.90
2017-06-27T18:23:32.078Z,3.58
2017-06-27T18:25:58.762Z,3.30
2017-06-27T18:28:25.439Z,5.32
2017-06-27T18:30:52.085Z,4.40
2017-06-27T18:33:18.743Z,3.80
2017-06-27T18:35:45.470Z,4.15
2017-06-27T18:38:12.112Z,4.03
2017-06-27T18:40:38.785Z,3.83
2017-06-27T18:43:05.490Z,3.60
2017-06-27T18:45:32.216Z,4.28
2017-06-27T18:47:58.880Z,3.87
2017-06-27T18:50:25.596Z,3.60
2017-06-27T18:52:52.349Z,4.05
2017-06-27T18:55:19.037Z,4.45
2017-06-27T18:57:45.722Z,3.95
2017-06-27T19:00:12.483Z,3.75
2017-06-27T19:02:39.208Z,4.85
2017-06-27T19:05:05.846Z,3.20
2017-06-27T19:07:32.494Z,8.93
2017-06-27T19:09:59.256Z,4.18
2017-06-27T19:12:25.959Z,4.22
2017-06-27T19:14:52.723Z,4.57
2017-06-27T19:17:19.444Z,3.40
2017-06-27T19:19:46.083Z,4.25
2017-06-27T19:22:12.835Z,4.62
2017-06-27T19:24:39.631Z,4.05
2017-06-27T19:27:06.308Z,4.15
2017-06-27T19:29:32.957Z,3.75
2017-06-27T19:31:59.663Z,3.80
2017-06-27T19:34:26.303Z,3.53
2017-06-27T19:36:52.967Z,3.53
2017-06-27T19:39:19.694Z,3.70
2017-06-27T19:41:46.351Z,3.40
2017-06-27T19:44:13.088Z,4.07
2017-06-27T19:46:39.846Z,3.67
2017-06-27T19:49:06.507Z,3.45
2017-06-27T19:51:33.175Z,4.18
2017-06-27T19:53:59.898Z,4.15
2017-06-27T19:56:26.601Z,4.32
2017-06-27T19:58:53.243Z,4.55
2017-06-27T20:01:19.947Z,5.07
2017-06-27T20:03:46.613Z,5.22
2017-06-27T20:06:13.248Z,4.65
2017-06-27T20:08:39.941Z,4.37
2017-06-27T20:11:06.585Z,4.70
2017-06-27T20:13:33.245Z,4.05
2017-06-27T20:16:00.000Z,3.83
2017-06-27T20:18:26.672Z,5.43
2017-06-27T20:20:53.318Z,4.22
2017-06-27T20:23:20.046Z,3.50
2017-06-27T20:25:46.692Z,4.75
2017-06-27T20:28:13.333Z,4.85
2017-06-27T20:30:40.008Z,5.03
2017-06-27T20:33:06.698Z,6.53
2017-06-27T20:35:33.433Z,4.90
2017-06-27T20:38:00.110Z,5.20
2017-06-27T20:40:26.773Z,5.03
2017-06-27T20:42:53.468Z,5.00
2017-06-27T20:45:20.210Z,4.40
2017-06-27T20:47:46.851Z,6.90
2017-06-27T20:50:13.510Z,5.10
2017-06-27T20:52:40.188Z,4.75
2017-06-27T20:55:06.858Z,7.97
2017-06-27T20:57:33.500Z,5.32
2017-06-27T21:00:00.248Z,5.55
2017-06-27T21:02:26.974Z,4.30
2017-06-27T21:04:53.711Z,4.80
2017-06-27T21:07:20.456Z,6.57
2017-06-27T21:09:47.201Z,5.05
2017-06-27T21:12:13.843Z,4.82
2017-06-27T21:14:40.590Z,7.57
2017-06-27T21:17:07.330Z,5.15
2017-06-27T21:19:34.056Z,5.68
2017-06-27T21:22:00.815Z,5.55
2017-06-27T21:24:27.455Z,5.40
2017-06-27T21:26:54.191Z,5.43
2017-06-27T21:29:20.924Z,5.22
2017-06-27T21:31:47.559Z,5.93
2017-06-27T21:34:14.319Z,6.30
2017-06-27T21:36:41.320Z,5.65
2017-06-27T21:39:07.959Z,6.10
2017-06-27T21:41:34.620Z,6.37
2017-06-27T21:44:01.295Z,6.55
2017-06-27T21:46:27.959Z,5.90
2017-06-27T21:48:54.648Z,5.93
2017-06-27T21:51:21.387Z,6.47
2017-06-27T21:53:48.038Z,5.22
2017-06-27T21:56:14.778Z,5.30
2017-06-27T21:58:41.454Z,5.85
2017-06-27T22:01:08.104Z,4.80
2017-06-27T22:03:34.801Z,5.90
2017-06-27T22:06:01.474Z,6.18
2017-06-27T22:08:28.123Z,6.57
2017-06-27T22:10:54.767Z,6.20
2017-06-27T22:13:21.452Z,5.60
2017-06-27T22:15:48.111Z,8.05
2017-06-27T22:18:14.829Z,5.95
2017-06-27T22:20:41.510Z,5.78
2017-06-27T22:23:08.207Z,5.28
2017-06-27T22:25:34.839Z,5.37
2017-06-27T22:28:01.588Z,6.28
2017-06-27T22:30:28.224Z,6.15
2017-06-27T22:32:54.866Z,6.18
2017-06-27T22:35:21.532Z,5.55
2017-06-27T22:37:48.254Z,6.45
2017-06-27T22:40:14.895Z,5.80
2017-06-27T22:42:41.555Z,5.95
2017-06-27T22:45:08.269Z,6.70
2017-06-27T22:47:34.912Z,8.93
2017-06-27T22:50:01.662Z,6.68
2017-06-27T22:52:28.301Z,6.20
2017-06-27T22:54:55.043Z,6.37
2017-06-27T22:57:21.778Z,6.07
2017-06-27T22:59:48.440Z,6.07
2017-06-27T23:02:15.167Z,5.80
2017-06-27T23:04:41.883Z,6.50
2017-06-27T23:07:08.641Z,6.70
2017-06-27T23:09:35.285Z,5.97
2017-06-27T23:12:02.015Z,6.65
2017-06-27T23:14:28.702Z,6.43
2017-06-27T23:16:55.343Z,6.75
2017-06-27T23:19:22.024Z,6.68
2017-06-27T23:21:48.776Z,6.40
2017-06-27T23:24:15.419Z,5.45
2017-06-27T23:26:42.080Z,7.07
2017-06-27T23:29:08.788Z,6.40
2017-06-27T23:31:35.543Z,7.75
2017-06-27T23:34:02.195Z,6.90
2017-06-27T23:36:28.838Z,7.87
2017-06-27T23:38:55.480Z,8.05
2017-06-27T23:41:22.144Z,14.20
2017-06-27T23:43:48.838Z,7.50
2017-06-27T23:46:15.495Z,7.15
2017-06-27T23:48:42.170Z,6.45
2017-06-27T23:51:08.812Z,6.35
2017-06-27T23:53:35.464Z,6.80
2017-06-27T23:56:02.246Z,10.30
2017-06-27T23:58:28.991Z,6.50
